Stevenson Ranch, California
Current Conditions -  °F | °C
As of 1:51 AM on Tuesday 21 Oct 2014 (Local Time) from KVNY Reporting Station
Clear Clear  
Wind Chill: 62°   Ceiling: Unl
Heat Index: 62°   Visibility: 10mi
Dew Point: 56°   Wind: 0mph
Humidity: 80%   Direction: NA
Pressure: 29.91"   Gusts: NA
Location:  34.38°N, 118.58°W
Report Text: KVNY 210851Z 00000KT 10SM CLR 17/13 A2991 RMK AO2 SLP120 T01670133 58001
Loading
Personal Weather Stations






























Interactive Weather Map
Tropical Storm Tracking
New forecast layout! Learn more

10-Day Weather Forecast

Advertisements
Track Severe Weather on mobile